Time;durP1;ratioP1;P1;durP2;ratioP2;P2;SDS_P1;SDS_P2;PMS_P1;PMS_P2;Temp;Humidity;BMP_temperature;BMP_pressure;BME280_temperature;BME280_humidity;BME280_pressure;Samples;Min_cycle;Max_cycle;Signal;HPM_P1;HPM_P2
2022/02/28 00:01:07;;;;;;;6.43;2.85;;;1.70;76.00;;;;;;4988285;28;20065;-73
2022/02/28 00:03:34;;;;;;;7.80;2.97;;;1.70;76.10;;;;;;4993252;28;20061;-76
2022/02/28 00:06:02;;;;;;;6.68;3.45;;;1.70;76.10;;;;;;4972990;28;20089;-75
2022/02/28 00:08:33;;;;;;;6.63;2.95;;;1.70;76.00;;;;;;4991410;28;20061;-72
2022/02/28 00:11:01;;;;;;;5.90;2.65;;;1.70;76.20;;;;;;4990779;28;20052;-73
2022/02/28 00:13:29;;;;;;;8.02;3.22;;;1.70;76.30;;;;;;4992232;28;20115;-76
2022/02/28 00:16:00;;;;;;;7.43;3.20;;;1.70;76.20;;;;;;4993408;28;20428;-74
2022/02/28 00:18:28;;;;;;;7.00;2.75;;;1.70;76.20;;;;;;4989407;28;20488;-76
2022/02/28 00:20:55;;;;;;;6.55;2.67;;;1.60;76.20;;;;;;4993904;28;20054;-73
2022/02/28 00:23:22;;;;;;;8.27;3.97;;;1.60;76.30;;;;;;4994336;28;20132;-73
2022/02/28 00:25:51;;;;;;;6.70;3.33;;;1.60;76.30;;;;;;4977115;28;21608;-75
2022/02/28 00:28:18;;;;;;;6.47;2.95;;;1.60;76.30;;;;;;4993446;28;20042;-75
2022/02/28 00:30:46;;;;;;;7.22;2.85;;;1.60;76.30;;;;;;4994408;28;20192;-73
2022/02/28 00:33:13;;;;;;;5.03;2.63;;;1.60;76.40;;;;;;4992389;28;20049;-74
2022/02/28 00:35:44;;;;;;;6.35;3.10;;;1.50;76.50;;;;;;4975794;28;20065;-76
2022/02/28 00:38:11;;;;;;;7.43;3.85;;;1.50;76.50;;;;;;4994308;28;20049;-75
2022/02/28 00:40:39;;;;;;;6.03;3.22;;;1.50;76.60;;;;;;4994862;28;20062;-75
2022/02/28 00:43:09;;;;;;;9.88;3.65;;;1.50;76.50;;;;;;4993169;28;20060;-74
2022/02/28 00:45:37;;;;;;;9.07;3.90;;;1.50;76.50;;;;;;4993889;28;20915;-75
2022/02/28 00:48:08;;;;;;;8.32;3.80;;;1.50;76.50;;;;;;4977471;28;20460;-77
2022/02/28 00:50:35;;;;;;;7.53;3.28;;;1.40;76.50;;;;;;4993375;28;20050;-75
2022/02/28 00:53:02;;;;;;;9.23;4.68;;;1.40;76.60;;;;;;4994260;28;20133;-75
2022/02/28 00:55:32;;;;;;;5.10;2.47;;;1.40;76.60;;;;;;4993453;28;20061;-74
2022/02/28 00:58:00;;;;;;;4.30;2.10;;;1.40;76.70;;;;;;4993974;28;20502;-76
2022/02/28 01:00:33;;;;;;;3.90;2.15;;;1.40;76.70;;;;;;4989651;28;20585;-75
2022/02/28 01:03:01;;;;;;;5.40;2.25;;;1.40;76.60;;;;;;4973787;28;20388;-77
2022/02/28 01:05:29;;;;;;;5.50;2.03;;;1.30;76.70;;;;;;4977937;28;20492;-73
2022/02/28 01:07:58;;;;;;;3.70;2.10;;;1.30;76.80;;;;;;4995464;28;20057;-77
2022/02/28 01:10:32;;;;;;;3.90;1.90;;;1.30;76.70;;;;;;4977146;28;20066;-73
2022/02/28 01:13:00;;;;;;;5.60;1.98;;;1.30;76.80;;;;;;4992224;28;20153;-74
2022/02/28 01:15:32;;;;;;;5.10;2.10;;;1.30;76.80;;;;;;4993187;28;20058;-76
2022/02/28 01:18:00;;;;;;;4.60;2.30;;;1.30;76.80;;;;;;4992237;28;20058;-76
2022/02/28 01:20:29;;;;;;;5.93;2.45;;;1.20;76.80;;;;;;4992333;28;20118;-73
2022/02/28 01:23:00;;;;;;;5.85;2.47;;;1.20;76.90;;;;;;4972528;28;20053;-77
2022/02/28 01:25:29;;;;;;;7.60;3.65;;;1.20;76.70;;;;;;4992401;28;20052;-74
2022/02/28 01:27:56;;;;;;;9.27;3.72;;;1.20;76.90;;;;;;4992696;28;20157;-77
2022/02/28 01:30:24;;;;;;;11.85;3.42;;;1.20;76.80;;;;;;4992531;28;20073;-76
2022/02/28 01:32:53;;;;;;;6.72;3.85;;;1.20;76.90;;;;;;4992693;28;20101;-75
2022/02/28 01:35:21;;;;;;;7.03;4.10;;;1.20;76.90;;;;;;4974314;28;20107;-75
2022/02/28 01:37:49;;;;;;;14.13;5.15;;;1.20;76.90;;;;;;4995037;28;20732;-75
2022/02/28 01:40:19;;;;;;;11.13;3.60;;;1.20;77.00;;;;;;4995793;28;20074;-74
2022/02/28 01:42:47;;;;;;;9.68;4.30;;;1.10;77.10;;;;;;4994288;28;20507;-75
2022/02/28 01:45:23;;;;;;;12.30;3.63;;;1.20;77.10;;;;;;4994259;28;20046;-75
2022/02/28 01:47:54;;;;;;;13.30;4.85;;;1.10;77.10;;;;;;4990756;28;20065;-76
2022/02/28 01:50:24;;;;;;;;;;;1.10;77.10;;;;;;4982255;28;20061;-75
2022/02/28 01:52:55;;;;;;;16.65;5.60;;;1.10;77.10;;;;;;4981775;28;19925;-75
2022/02/28 01:55:24;;;;;;;13.75;4.25;;;1.00;77.20;;;;;;4976772;28;20143;-76
2022/02/28 01:57:52;;;;;;;12.35;4.78;;;1.00;77.00;;;;;;4993066;28;20053;-77
2022/02/28 02:00:21;;;;;;;11.85;4.85;;;1.00;77.10;;;;;;4976739;28;20411;-78
2022/02/28 02:02:56;;;;;;;18.20;5.97;;;1.00;77.10;;;;;;4992116;28;20065;-74
2022/02/28 02:05:27;;;;;;;10.15;4.38;;;1.00;77.00;;;;;;4975573;28;20061;-77
2022/02/28 02:07:55;;;;;;;12.38;4.18;;;1.00;77.10;;;;;;4991963;28;20148;-74
2022/02/28 02:10:23;;;;;;;11.30;4.85;;;1.00;77.10;;;;;;4993084;28;20108;-76
2022/02/28 02:12:55;;;;;;;9.27;3.50;;;1.00;77.10;;;;;;4981094;28;20077;-75
2022/02/28 02:15:22;;;;;;;8.73;3.20;;;0.90;77.00;;;;;;4972369;28;20700;-77
2022/02/28 02:17:50;;;;;;;4.75;2.25;;;0.90;77.10;;;;;;4991558;28;20038;-77
2022/02/28 02:20:37;;;;;;;6.32;2.35;;;0.90;77.00;;;;;;4994619;28;20042;-76
2022/02/28 02:23:06;;;;;;;5.63;3.30;;;0.90;77.30;;;;;;4997047;28;20054;-74
2022/02/28 02:25:35;;;;;;;4.78;2.38;;;0.90;77.20;;;;;;4994125;28;20093;-77
2022/02/28 02:28:03;;;;;;;7.55;2.58;;;0.90;77.30;;;;;;4973625;28;20137;-77
2022/02/28 02:30:32;;;;;;;5.97;2.40;;;0.90;77.30;;;;;;4977326;28;20050;-77
2022/02/28 02:33:01;;;;;;;5.30;2.75;;;0.80;77.40;;;;;;4990828;28;20054;-75
2022/02/28 02:35:30;;;;;;;3.85;1.70;;;0.90;77.30;;;;;;4976441;28;20164;-76
2022/02/28 02:38:03;;;;;;;6.85;3.30;;;0.90;77.30;;;;;;5008960;28;20086;-76
2022/02/28 02:40:32;;;;;;;4.63;2.17;;;0.80;77.30;;;;;;4995119;28;20057;-74
2022/02/28 02:43:00;;;;;;;4.85;2.63;;;0.80;77.40;;;;;;4995853;28;20176;-77
2022/02/28 02:45:28;;;;;;;3.63;1.58;;;0.80;77.40;;;;;;4997660;28;20073;-75
2022/02/28 02:47:55;;;;;;;10.23;2.88;;;0.70;77.40;;;;;;5003128;28;20056;-76
2022/02/28 02:50:22;;;;;;;5.07;1.70;;;0.70;77.40;;;;;;5004536;28;20061;-76
2022/02/28 02:52:50;;;;;;;9.32;2.25;;;0.70;77.50;;;;;;4999397;28;20039;-76
2022/02/28 02:55:23;;;;;;;6.78;2.55;;;0.70;77.30;;;;;;4993537;28;20046;-75
2022/02/28 02:57:52;;;;;;;6.88;2.33;;;0.70;77.30;;;;;;4995935;28;20054;-76
2022/02/28 03:00:21;;;;;;;5.97;2.00;;;0.70;77.50;;;;;;4990685;28;20050;-75
2022/02/28 03:02:59;;;;;;;4.45;2.10;;;0.70;77.30;;;;;;4995122;28;20042;-76
2022/02/28 03:05:30;;;;;;;3.72;1.95;;;0.70;77.30;;;;;;4997667;28;20061;-76
2022/02/28 03:07:58;;;;;;;6.03;2.45;;;0.70;77.40;;;;;;4998960;28;20152;-75
2022/02/28 03:10:31;;;;;;;4.88;2.05;;;0.60;77.30;;;;;;4997838;28;20052;-78
2022/02/28 03:13:04;;;;;;;8.07;3.00;;;0.70;77.40;;;;;;4996935;28;20057;-75
2022/02/28 03:15:35;;;;;;;6.80;2.17;;;0.60;77.30;;;;;;5003927;28;20054;-77
2022/02/28 03:18:05;;;;;;;5.00;1.98;;;0.60;77.40;;;;;;5001310;28;20511;-76
2022/02/28 03:20:39;;;;;;;4.70;2.00;;;0.60;77.40;;;;;;4995852;28;20057;-76
2022/02/28 03:23:07;;;;;;;4.50;2.38;;;0.60;77.50;;;;;;4998820;28;20050;-77
2022/02/28 03:25:36;;;;;;;3.42;2.00;;;0.60;77.40;;;;;;4993762;28;20419;-76
2022/02/28 03:28:05;;;;;;;;;;;0.60;77.50;;;;;;5000277;28;20412;-74
2022/02/28 03:30:32;;;;;;;5.15;2.22;;;0.50;77.50;;;;;;4996293;28;19972;-76
2022/02/28 03:32:59;;;;;;;5.80;2.15;;;0.50;77.50;;;;;;4991591;28;20053;-76
2022/02/28 03:35:27;;;;;;;5.22;2.30;;;0.50;77.40;;;;;;4996541;28;20092;-77
2022/02/28 03:37:59;;;;;;;4.47;2.60;;;0.50;77.30;;;;;;4962948;28;20056;-77
2022/02/28 03:40:30;;;;;;;3.45;1.88;;;0.50;77.20;;;;;;4961634;28;20051;-75
2022/02/28 03:43:01;;;;;;;3.63;1.83;;;0.50;77.40;;;;;;4978570;28;20039;-74
2022/02/28 03:45:37;;;;;;;6.15;2.65;;;0.40;77.30;;;;;;4966276;28;20097;-76
2022/02/28 03:48:07;;;;;;;7.70;3.47;;;0.50;77.40;;;;;;4961500;28;20046;-77
2022/02/28 03:51:13;;;;;;;4.68;2.28;;;0.40;77.40;;;;;;4964164;28;20050;-73
2022/02/28 03:53:46;;;;;;;5.68;2.95;;;0.40;77.50;;;;;;4965973;28;20547;-76
2022/02/28 03:56:16;;;;;;;6.97;2.53;;;0.40;77.40;;;;;;4978768;28;20105;-75
2022/02/28 03:58:45;;;;;;;6.38;2.55;;;0.40;77.50;;;;;;4966542;28;20059;-75
2022/02/28 04:01:16;;;;;;;5.20;2.42;;;0.40;77.50;;;;;;4958418;28;20061;-74
2022/02/28 04:03:48;;;;;;;2.88;1.55;;;0.40;77.50;;;;;;4976935;28;20054;-78
2022/02/28 04:06:15;;;;;;;7.70;2.90;;;0.30;77.70;;;;;;4967028;28;20051;-76
2022/02/28 04:08:45;;;;;;;5.00;2.50;;;0.30;77.50;;;;;;4959504;28;20050;-76
2022/02/28 04:11:17;;;;;;;6.32;2.63;;;0.30;77.60;;;;;;4959527;28;21796;-75
2022/02/28 04:13:46;;;;;;;;;;;0.30;77.80;;;;;;4963868;28;20503;-76
2022/02/28 04:16:14;;;;;;;3.92;1.75;;;0.30;77.70;;;;;;4968280;28;20384;-75
2022/02/28 04:18:56;;;;;;;5.43;2.42;;;0.20;77.70;;;;;;4964026;28;20077;-76
2022/02/28 04:21:41;;;;;;;6.65;2.20;;;0.20;77.80;;;;;;4967594;28;20054;-74
2022/02/28 04:24:09;;;;;;;7.65;2.78;;;0.20;77.90;;;;;;4962230;28;20082;-75
2022/02/28 04:26:40;;;;;;;5.80;2.53;;;0.20;77.90;;;;;;4964390;28;21537;-76
2022/02/28 04:29:14;;;;;;;4.78;2.20;;;0.20;77.90;;;;;;4957426;28;20046;-75
2022/02/28 04:31:44;;;;;;;4.50;2.13;;;0.20;77.80;;;;;;4981943;28;20077;-74
2022/02/28 04:34:14;;;;;;;3.78;1.70;;;0.20;77.80;;;;;;4967442;28;20137;-78
2022/02/28 04:36:51;;;;;;;5.82;1.67;;;0.10;77.80;;;;;;4982747;28;20488;-75
2022/02/28 04:39:20;;;;;;;4.55;2.17;;;0.20;77.60;;;;;;5001982;28;20041;-74
2022/02/28 04:41:47;;;;;;;3.78;2.05;;;0.10;77.70;;;;;;4996732;28;20042;-76
2022/02/28 04:44:16;;;;;;;7.88;2.40;;;0.10;77.60;;;;;;5000439;28;20037;-77
2022/02/28 04:46:46;;;;;;;7.32;3.17;;;0.10;77.70;;;;;;4997660;28;20042;-76
2022/02/28 04:49:34;;;;;;;5.43;1.90;;;0.10;77.80;;;;;;5002389;28;20117;-75
2022/02/28 04:52:03;;;;;;;7.85;2.75;;;0.00;77.90;;;;;;5003173;28;20487;-75
2022/02/28 04:54:30;;;;;;;3.25;1.75;;;0.00;77.90;;;;;;5005257;28;20447;-76
2022/02/28 04:57:02;;;;;;;7.15;2.75;;;0.00;77.80;;;;;;4994282;28;20050;-76
2022/02/28 04:59:34;;;;;;;4.40;2.42;;;0.00;77.80;;;;;;4995785;28;20765;-76
2022/02/28 05:02:03;;;;;;;5.05;2.08;;;0.00;77.80;;;;;;4993593;28;20065;-76
2022/02/28 05:04:49;;;;;;;6.28;2.53;;;0.00;77.80;;;;;;5004544;28;20070;-77
2022/02/28 05:07:16;;;;;;;6.95;3.05;;;0.00;77.90;;;;;;4995947;28;20141;-75
2022/02/28 05:09:45;;;;;;;4.65;2.60;;;0.00;77.90;;;;;;4992278;28;20140;-77
2022/02/28 05:12:12;;;;;;;8.40;3.10;;;0.00;77.90;;;;;;4994693;28;20053;-73
2022/02/28 05:14:44;;;;;;;5.40;2.40;;;0.00;77.80;;;;;;4999575;28;20047;-73
2022/02/28 05:17:13;;;;;;;4.45;1.90;;;0.00;77.70;;;;;;4994503;28;20057;-75
2022/02/28 05:19:42;;;;;;;6.80;3.42;;;0.00;77.90;;;;;;4997524;28;20086;-76
2022/02/28 05:22:12;;;;;;;4.40;2.13;;;0.00;77.90;;;;;;4989250;28;20046;-74
2022/02/28 05:25:06;;;;;;;6.00;3.42;;;0.00;77.90;;;;;;4995780;28;20582;-76
2022/02/28 05:27:43;;;;;;;5.03;1.73;;;0.00;77.80;;;;;;4999425;28;20042;-76
2022/02/28 05:30:14;;;;;;;5.13;2.65;;;0.00;77.80;;;;;;4997508;28;20050;-74
2022/02/28 05:32:45;;;;;;;6.13;2.00;;;0.00;77.80;;;;;;5000422;28;20064;-75
2022/02/28 05:35:30;;;;;;;7.47;3.08;;;0.00;77.90;;;;;;4993372;28;20042;-78
2022/02/28 05:38:07;;;;;;;6.15;3.17;;;0.00;77.80;;;;;;4995649;28;20183;-76
2022/02/28 05:40:38;;;;;;;7.63;3.15;;;-3276.70;77.80;;;;;;4998484;28;20146;-74
2022/02/28 05:43:12;;;;;;;8.35;3.30;;;0.00;77.90;;;;;;5003252;28;20126;-75
2022/02/28 05:45:42;;;;;;;7.25;3.08;;;-3276.70;77.90;;;;;;4993088;28;20498;-75
2022/02/28 05:48:32;;;;;;;6.70;3.05;;;-3276.70;77.80;;;;;;4992638;28;20107;-76
2022/02/28 05:51:01;;;;;;;10.07;4.00;;;-3276.60;77.90;;;;;;4993342;28;20069;-77
2022/02/28 05:53:28;;;;;;;10.93;4.40;;;-3276.70;77.90;;;;;;4993958;28;20531;-75
2022/02/28 05:55:56;;;;;;;8.05;4.68;;;-3276.60;77.80;;;;;;4995143;28;20050;-77
2022/02/28 05:58:23;;;;;;;10.70;4.25;;;-3276.70;77.80;;;;;;4993740;28;20115;-74
2022/02/28 06:00:54;;;;;;;9.02;3.42;;;-3276.60;77.90;;;;;;4991413;28;20073;-77
2022/02/28 06:03:21;;;;;;;;;;;-3276.70;77.90;;;;;;4997646;28;20502;-74
2022/02/28 06:05:49;;;;;;;7.00;3.15;;;-3276.60;77.90;;;;;;4994748;28;19979;-74
2022/02/28 06:08:17;;;;;;;7.55;3.20;;;-3276.60;78.10;;;;;;4997333;28;20166;-75
2022/02/28 06:10:44;;;;;;;7.75;3.35;;;-3276.60;78.10;;;;;;4997944;28;20581;-75
2022/02/28 06:13:12;;;;;;;9.77;3.13;;;-3276.60;78.10;;;;;;4993271;28;20057;-75
2022/02/28 06:15:41;;;;;;;7.85;3.22;;;-3276.60;78.10;;;;;;4994128;28;20052;-75
2022/02/28 06:18:11;;;;;;;12.02;3.05;;;-3276.60;78.10;;;;;;4998771;28;20120;-76
2022/02/28 06:20:38;;;;;;;4.87;2.90;;;-3276.60;78.10;;;;;;4998635;28;20069;-74
2022/02/28 06:23:09;;;;;;;5.07;2.35;;;-3276.60;78.20;;;;;;4999262;28;20556;-75
2022/02/28 06:25:37;;;;;;;4.65;2.08;;;-3276.60;78.20;;;;;;4997747;28;20046;-77
2022/02/28 06:28:05;;;;;;;7.32;3.40;;;-3276.60;78.30;;;;;;4998421;28;20049;-76
2022/02/28 06:30:32;;;;;;;10.13;2.97;;;-3276.60;78.40;;;;;;4998039;28;20141;-76
2022/02/28 06:33:01;;;;;;;7.93;2.72;;;-3276.70;78.50;;;;;;4996273;28;20057;-74
2022/02/28 06:35:30;;;;;;;8.80;3.78;;;-3276.70;78.40;;;;;;4998095;28;20121;-76
2022/02/28 06:37:58;;;;;;;5.45;2.58;;;-3276.70;78.60;;;;;;4999116;28;20050;-74
2022/02/28 06:40:25;;;;;;;8.38;3.40;;;-3276.70;78.60;;;;;;4996312;28;20161;-76
2022/02/28 06:42:52;;;;;;;8.23;4.55;;;-3276.70;78.60;;;;;;4996087;28;20077;-76
2022/02/28 06:45:20;;;;;;;7.55;3.22;;;-3276.70;78.70;;;;;;4996089;28;20459;-74
2022/02/28 06:47:48;;;;;;;5.15;2.60;;;-3276.70;78.70;;;;;;4995441;28;20147;-73
2022/02/28 06:50:15;;;;;;;9.40;3.30;;;-3276.70;78.80;;;;;;4995783;28;20046;-76
2022/02/28 06:52:44;;;;;;;5.75;3.40;;;-3276.70;78.90;;;;;;4993861;28;20038;-75
2022/02/28 06:55:12;;;;;;;9.70;3.58;;;-3276.70;78.80;;;;;;4997605;28;20045;-75
2022/02/28 06:57:40;;;;;;;7.68;2.67;;;-3276.70;78.90;;;;;;4996425;28;20058;-76
2022/02/28 07:00:09;;;;;;;7.70;3.20;;;-3276.70;78.90;;;;;;4991465;28;20053;-73
2022/02/28 07:02:53;;;;;;;8.60;3.17;;;0.00;79.00;;;;;;4975806;28;20125;-75
2022/02/28 07:05:22;;;;;;;9.30;4.00;;;-3276.70;79.00;;;;;;4986948;28;20057;-77
2022/02/28 07:07:51;;;;;;;6.50;3.53;;;0.00;78.90;;;;;;4997053;28;20066;-76
2022/02/28 07:10:20;;;;;;;19.27;3.70;;;0.00;78.90;;;;;;4994547;28;20077;-75
2022/02/28 07:12:48;;;;;;;9.07;2.70;;;0.00;79.00;;;;;;4995331;28;20049;-73
2022/02/28 07:15:16;;;;;;;11.68;3.92;;;0.00;79.00;;;;;;4994573;28;20117;-77
2022/02/28 07:17:43;;;;;;;6.97;3.63;;;0.00;79.10;;;;;;4996351;28;20050;-76
2022/02/28 07:20:12;;;;;;;7.05;3.38;;;0.00;79.00;;;;;;4994575;28;20088;-76
2022/02/28 07:22:40;;;;;;;8.02;3.47;;;0.00;79.10;;;;;;4997320;28;20042;-74
2022/02/28 07:25:10;;;;;;;8.00;3.45;;;0.00;79.10;;;;;;4997892;28;20557;-75
2022/02/28 07:27:38;;;;;;;8.30;3.38;;;0.10;79.20;;;;;;4995705;28;20053;-77
2022/02/28 07:30:06;;;;;;;6.15;2.92;;;0.10;79.20;;;;;;4995609;28;20046;-76
2022/02/28 07:32:34;;;;;;;8.52;3.40;;;0.10;79.30;;;;;;4994711;28;20066;-76
2022/02/28 07:35:02;;;;;;;8.80;3.92;;;0.20;79.30;;;;;;4995335;28;20169;-76
2022/02/28 07:37:31;;;;;;;6.85;3.15;;;0.20;79.40;;;;;;4995283;28;20125;-77
2022/02/28 07:39:58;;;;;;;5.65;2.92;;;0.20;79.40;;;;;;4995507;28;20050;-74
2022/02/28 07:42:28;;;;;;;7.18;3.38;;;0.30;79.50;;;;;;4995167;28;20041;-73
2022/02/28 07:44:56;;;;;;;6.28;3.30;;;0.40;79.50;;;;;;4997057;28;20068;-76
2022/02/28 07:47:23;;;;;;;6.20;3.08;;;0.40;79.40;;;;;;5000030;28;20049;-74
2022/02/28 07:49:54;;;;;;;9.13;3.30;;;0.40;79.50;;;;;;4998291;28;20069;-77
2022/02/28 07:52:21;;;;;;;7.70;4.35;;;0.40;79.50;;;;;;4996895;28;20038;-76
2022/02/28 07:54:48;;;;;;;10.80;3.90;;;0.40;79.60;;;;;;4995723;28;20121;-75
2022/02/28 07:57:16;;;;;;;6.72;3.30;;;0.50;79.60;;;;;;4996299;28;20102;-77
2022/02/28 07:59:48;;;;;;;8.65;4.00;;;0.50;79.60;;;;;;4983025;28;20124;-77
2022/02/28 08:02:15;;;;;;;6.47;3.45;;;0.60;79.60;;;;;;4994041;28;20046;-75
2022/02/28 08:04:43;;;;;;;7.60;3.47;;;0.70;79.60;;;;;;4974612;28;20056;-76
2022/02/28 08:07:10;;;;;;;11.40;2.97;;;0.70;79.70;;;;;;4972596;28;20049;-76
2022/02/28 08:09:38;;;;;;;6.75;3.67;;;0.70;79.50;;;;;;4995659;28;20050;-76
2022/02/28 08:12:08;;;;;;;9.68;4.07;;;0.90;79.30;;;;;;4986505;28;20058;-75
2022/02/28 08:14:39;;;;;;;10.27;4.10;;;1.00;79.30;;;;;;4998435;28;20100;-74
2022/02/28 08:17:09;;;;;;;9.40;4.05;;;1.00;79.40;;;;;;4979879;28;20156;-75
2022/02/28 08:19:36;;;;;;;9.25;3.53;;;1.00;79.30;;;;;;4996417;28;20074;-73
2022/02/28 08:22:04;;;;;;;7.10;4.00;;;1.10;79.20;;;;;;4994137;28;20144;-76
2022/02/28 08:24:31;;;;;;;10.38;4.22;;;1.20;79.20;;;;;;4998084;28;20054;-75
2022/02/28 08:26:59;;;;;;;6.25;2.92;;;1.20;79.30;;;;;;4996996;28;20129;-76
2022/02/28 08:29:27;;;;;;;12.30;4.55;;;1.30;79.10;;;;;;4996154;28;20066;-77
2022/02/28 08:31:55;;;;;;;8.57;4.40;;;1.30;79.10;;;;;;4998553;28;20632;-75
2022/02/28 08:34:24;;;;;;;7.97;3.25;;;1.40;79.00;;;;;;4997983;28;20056;-75
2022/02/28 08:36:52;;;;;;;6.40;3.25;;;1.50;79.00;;;;;;4993280;28;20081;-76
2022/02/28 08:39:19;;;;;;;10.05;5.43;;;1.60;78.70;;;;;;4996090;28;20049;-75
2022/02/28 08:41:46;;;;;;;8.65;4.50;;;1.60;78.50;;;;;;4995726;28;20051;-75
2022/02/28 08:44:14;;;;;;;8.48;3.15;;;1.70;78.50;;;;;;4993392;28;20570;-75
2022/02/28 08:46:44;;;;;;;9.00;4.55;;;1.80;79.20;;;;;;4994796;28;20054;-76
2022/02/28 08:49:11;;;;;;;8.93;3.15;;;1.80;79.10;;;;;;4984722;28;20050;-76
2022/02/28 08:51:41;;;;;;;9.32;3.78;;;1.80;78.90;;;;;;4994282;28;20070;-77
2022/02/28 08:54:08;;;;;;;10.13;3.90;;;1.90;78.80;;;;;;4995543;28;20046;-75
2022/02/28 08:56:35;;;;;;;7.47;4.07;;;2.00;78.80;;;;;;4994781;28;20097;-75
2022/02/28 08:59:03;;;;;;;8.43;4.13;;;2.10;78.90;;;;;;4996775;28;20528;-74
2022/02/28 09:01:31;;;;;;;7.63;3.20;;;2.20;79.10;;;;;;4991113;28;20453;-70
2022/02/28 09:03:58;;;;;;;8.18;3.60;;;2.40;79.30;;;;;;4990410;28;20416;-68
2022/02/28 09:06:25;;;;;;;7.50;3.70;;;2.40;79.10;;;;;;4990088;28;20057;-68
2022/02/28 09:08:57;;;;;;;11.50;4.30;;;;;;;;;;4989744;28;20046;-68
2022/02/28 09:11:24;;;;;;;10.35;3.65;;;2.60;78.90;;;;;;4989957;28;20137;-67
2022/02/28 09:13:52;;;;;;;7.20;3.90;;;2.70;79.00;;;;;;4989863;28;20038;-67
2022/02/28 09:16:21;;;;;;;6.43;3.60;;;2.80;78.90;;;;;;4990971;28;20085;-68
2022/02/28 09:18:48;;;;;;;7.63;3.83;;;3.00;78.40;;;;;;4974728;28;20077;-67
2022/02/28 09:21:16;;;;;;;7.63;3.50;;;3.10;78.50;;;;;;4988947;28;21726;-67
2022/02/28 09:23:45;;;;;;;9.07;4.38;;;3.20;78.40;;;;;;4988559;28;20125;-68
2022/02/28 09:26:13;;;;;;;10.77;4.72;;;3.30;78.10;;;;;;4989695;28;20109;-67
2022/02/28 09:28:41;;;;;;;9.05;4.45;;;3.30;77.70;;;;;;4989042;28;20165;-68
2022/02/28 09:31:08;;;;;;;8.82;3.85;;;3.40;77.90;;;;;;4989527;28;20086;-68
2022/02/28 09:33:35;;;;;;;9.45;4.13;;;3.50;77.60;;;;;;4989522;28;20050;-68
2022/02/28 09:36:04;;;;;;;11.20;3.72;;;3.60;77.50;;;;;;4990859;28;20126;-67
2022/02/28 09:38:32;;;;;;;6.82;3.50;;;3.70;76.90;;;;;;4989266;28;20037;-67
2022/02/28 09:41:02;;;;;;;9.57;3.97;;;3.80;76.60;;;;;;4979500;28;20052;-67
2022/02/28 09:43:46;;;;;;;6.18;3.25;;;3.80;76.70;;;;;;4990010;28;20053;-67
2022/02/28 09:46:33;;;;;;;8.73;3.72;;;3.90;76.30;;;;;;4991713;28;20057;-70
2022/02/28 09:49:30;;;;;;;9.35;3.38;;;4.00;76.50;;;;;;4906873;28;20056;-68
2022/02/28 09:52:06;;;;;;;7.20;3.95;;;4.10;76.40;;;;;;4991978;28;20117;-70
2022/02/28 09:54:53;;;;;;;6.30;3.15;;;4.20;76.40;;;;;;4995207;28;20053;-68
2022/02/28 09:57:44;;;;;;;8.57;3.35;;;4.30;75.50;;;;;;4991698;28;20057;-69
2022/02/28 10:00:24;;;;;;;7.95;3.97;;;4.30;75.70;;;;;;4980716;28;20060;-69
2022/02/28 10:02:56;;;;;;;5.82;3.35;;;4.40;75.20;;;;;;4993629;28;20030;-68
2022/02/28 10:05:36;;;;;;;8.95;3.67;;;4.50;74.80;;;;;;4970752;28;20065;-68
2022/02/28 10:08:06;;;;;;;9.77;3.00;;;4.60;74.30;;;;;;4994116;28;20042;-68
2022/02/28 10:10:35;;;;;;;6.15;2.75;;;4.60;73.40;;;;;;4995053;28;20042;-68
2022/02/28 10:13:03;;;;;;;9.25;3.17;;;4.70;73.90;;;;;;4994874;28;20050;-68
2022/02/28 10:15:32;;;;;;;6.20;3.63;;;4.70;73.30;;;;;;4992805;28;20814;-68
2022/02/28 10:18:02;;;;;;;9.27;3.22;;;4.80;73.00;;;;;;4993278;28;20050;-68
2022/02/28 10:20:31;;;;;;;5.45;2.70;;;4.90;72.80;;;;;;4990553;28;20061;-67
2022/02/28 10:23:01;;;;;;;8.27;3.08;;;4.90;73.30;;;;;;4994294;28;20050;-67
2022/02/28 10:25:33;;;;;;;6.38;3.60;;;5.00;73.00;;;;;;4992630;28;20073;-68
2022/02/28 10:28:15;;;;;;;7.35;3.13;;;5.00;72.90;;;;;;4977513;28;20139;-68
2022/02/28 10:31:04;;;;;;;8.30;3.30;;;5.20;73.20;;;;;;4990765;28;20057;-68
2022/02/28 10:33:50;;;;;;;4.95;2.38;;;5.20;73.00;;;;;;4975225;28;20138;-69
2022/02/28 10:36:49;;;;;;;8.10;3.13;;;5.20;73.20;;;;;;4924549;28;20099;-68
2022/02/28 10:39:27;;;;;;;8.73;3.90;;;5.30;72.50;;;;;;4992729;28;20049;-66
2022/02/28 10:42:05;;;;;;;6.60;3.20;;;5.40;72.30;;;;;;4990510;28;20137;-67
2022/02/28 10:44:32;;;;;;;5.70;2.92;;;5.40;71.90;;;;;;4988408;28;20053;-67
2022/02/28 10:47:06;;;;;;;7.80;3.28;;;5.50;71.80;;;;;;4990198;28;20512;-67
2022/02/28 10:49:34;;;;;;;6.43;3.30;;;5.60;71.40;;;;;;4988120;28;20488;-67
2022/02/28 10:52:07;;;;;;;8.63;3.72;;;5.60;71.30;;;;;;4992984;28;21542;-68
2022/02/28 10:54:37;;;;;;;6.10;2.65;;;5.70;70.70;;;;;;4988331;28;20042;-68
2022/02/28 10:57:06;;;;;;;6.47;2.85;;;5.70;70.50;;;;;;4992913;28;20495;-68
2022/02/28 10:59:42;;;;;;;6.90;2.85;;;5.70;70.00;;;;;;4991329;28;20064;-68
2022/02/28 11:02:27;;;;;;;7.68;3.47;;;5.80;69.50;;;;;;4987373;28;21966;-66
2022/02/28 11:05:07;;;;;;;5.45;2.78;;;5.90;69.60;;;;;;4992024;28;20680;-67
2022/02/28 11:07:42;;;;;;;5.53;2.33;;;5.90;68.40;;;;;;4978336;28;20054;-68
2022/02/28 11:10:14;;;;;;;6.15;2.88;;;6.00;68.60;;;;;;4983039;28;20196;-69
2022/02/28 11:12:52;;;;;;;6.95;2.58;;;6.00;68.00;;;;;;4991055;28;20161;-68
2022/02/28 11:15:22;;;;;;;7.75;2.63;;;6.00;67.70;;;;;;4989457;28;20054;-67
2022/02/28 11:17:52;;;;;;;7.03;2.95;;;6.10;67.90;;;;;;4990894;28;20053;-67
2022/02/28 11:20:21;;;;;;;9.40;3.67;;;6.10;67.50;;;;;;4990047;28;20133;-67
2022/02/28 11:22:50;;;;;;;6.57;3.45;;;6.10;67.40;;;;;;4987470;28;20124;-68
2022/02/28 11:25:20;;;;;;;6.30;2.63;;;6.10;67.30;;;;;;4989701;28;20730;-68
2022/02/28 11:27:49;;;;;;;4.90;2.25;;;6.20;67.10;;;;;;4988462;28;20057;-67
2022/02/28 11:30:21;;;;;;;6.35;3.08;;;6.20;67.60;;;;;;4990665;28;20519;-67
2022/02/28 11:32:56;;;;;;;6.80;2.92;;;6.20;66.90;;;;;;4989699;28;20050;-69
2022/02/28 11:35:43;;;;;;;6.35;2.67;;;6.30;67.40;;;;;;4989377;28;20776;-69
2022/02/28 11:38:40;;;;;;;5.93;2.70;;;6.30;67.40;;;;;;4989336;28;20046;-67
2022/02/28 11:41:08;;;;;;;7.10;2.78;;;6.30;67.40;;;;;;4990449;28;20061;-69
2022/02/28 11:43:37;;;;;;;5.82;2.80;;;6.40;67.20;;;;;;4989991;28;20060;-68
2022/02/28 11:46:14;;;;;;;7.28;3.05;;;6.40;67.00;;;;;;4991381;28;20049;-69
2022/02/28 11:48:45;;;;;;;7.32;2.90;;;6.40;66.90;;;;;;4989888;28;20718;-68
2022/02/28 11:51:26;;;;;;;9.27;3.78;;;6.40;67.10;;;;;;4970925;28;20582;-69
2022/02/28 11:53:55;;;;;;;12.32;5.43;;;6.40;67.10;;;;;;4981799;28;20424;-68
2022/02/28 11:56:58;;;;;;;19.15;7.78;;;6.40;67.40;;;;;;4988209;28;20057;-70
2022/02/28 11:59:28;;;;;;;18.88;9.27;;;6.40;67.40;;;;;;4990393;28;20050;-68
2022/02/28 12:02:03;;;;;;;21.83;10.30;;;6.50;67.70;;;;;;4986759;28;20043;-69
2022/02/28 12:04:41;;;;;;;23.60;12.00;;;6.50;67.80;;;;;;4989416;28;21939;-68
2022/02/28 12:07:23;;;;;;;27.88;13.10;;;6.50;67.80;;;;;;4990178;28;20119;-70
2022/02/28 12:10:07;;;;;;;27.15;12.35;;;6.50;68.00;;;;;;4989848;28;20420;-69
2022/02/28 12:12:35;;;;;;;28.27;13.38;;;6.60;68.20;;;;;;4990359;28;20038;-69
2022/02/28 12:15:24;;;;;;;41.65;17.63;;;6.60;67.90;;;;;;4991261;28;20045;-67
2022/02/28 12:18:04;;;;;;;26.83;12.23;;;6.60;67.90;;;;;;4990860;28;20598;-68
2022/02/28 12:20:35;;;;;;;;;;;6.60;67.80;;;;;;4991508;28;20054;-68
2022/02/28 12:23:11;;;;;;;18.33;9.80;;;6.60;68.00;;;;;;4990238;28;19925;-68
2022/02/28 12:25:41;;;;;;;25.15;10.98;;;6.60;67.60;;;;;;4991705;28;20117;-68
2022/02/28 12:28:24;;;;;;;20.80;9.30;;;6.70;66.40;;;;;;4992222;28;20049;-68
2022/02/28 12:30:54;;;;;;;18.38;8.18;;;6.70;66.70;;;;;;4989915;28;20038;-67
2022/02/28 12:33:26;;;;;;;15.40;7.00;;;6.70;66.70;;;;;;4989638;28;20053;-67
2022/02/28 12:35:59;;;;;;;10.43;5.13;;;6.70;66.30;;;;;;4974171;28;22156;-66
2022/02/28 12:38:28;;;;;;;12.50;5.20;;;6.70;66.20;;;;;;4979593;28;20089;-68
2022/02/28 12:41:03;;;;;;;13.27;5.40;;;6.80;66.60;;;;;;5002380;28;20488;-68
2022/02/28 12:43:33;;;;;;;9.55;4.60;;;6.80;66.50;;;;;;4997073;28;20488;-67
2022/02/28 12:46:06;;;;;;;10.85;4.70;;;6.90;66.30;;;;;;4990785;28;20132;-68
2022/02/28 12:48:34;;;;;;;9.13;4.20;;;6.90;66.30;;;;;;4992370;28;20048;-67
2022/02/28 12:51:05;;;;;;;13.88;5.40;;;6.90;66.30;;;;;;4989857;28;20050;-69
2022/02/28 12:53:35;;;;;;;12.85;5.78;;;7.00;66.00;;;;;;4990882;28;20149;-68
2022/02/28 12:56:04;;;;;;;12.93;5.57;;;7.00;65.60;;;;;;4990128;28;20057;-68
2022/02/28 12:58:33;;;;;;;17.60;7.70;;;7.10;66.20;;;;;;4991462;28;20070;-67
2022/02/28 13:01:12;;;;;;;16.05;7.72;;;7.20;65.10;;;;;;4988515;28;20136;-68
2022/02/28 13:03:40;;;;;;;13.98;6.78;;;7.10;64.90;;;;;;4991585;28;20614;-67
2022/02/28 13:06:10;;;;;;;18.05;7.60;;;7.10;64.90;;;;;;4993439;28;20496;-68
2022/02/28 13:08:40;;;;;;;14.15;6.25;;;7.10;65.40;;;;;;4991685;28;20058;-68
2022/02/28 13:11:11;;;;;;;17.83;7.37;;;7.10;65.40;;;;;;4992151;28;20116;-68
2022/02/28 13:13:43;;;;;;;13.73;7.00;;;7.00;65.40;;;;;;4989010;28;20078;-69